createdAt,value
2023-02-23T00:01:55.252Z,8.10
2023-02-23T00:04:24.623Z,8.10
2023-02-23T00:06:53.487Z,8.77
2023-02-23T00:09:26.116Z,9.35
2023-02-23T00:11:55.960Z,8.67
2023-02-23T00:14:27.901Z,9.63
2023-02-23T00:16:56.477Z,8.95
2023-02-23T00:19:25.130Z,9.55
2023-02-23T00:21:53.728Z,9.85
2023-02-23T00:24:26.821Z,9.68
2023-02-23T00:26:54.814Z,9.73
2023-02-23T00:29:24.448Z,9.82
2023-02-23T00:31:53.444Z,9.55
2023-02-23T00:34:23.558Z,8.43
2023-02-23T00:36:54.207Z,10.48
2023-02-23T00:39:26.734Z,10.02
2023-02-23T00:41:55.829Z,9.90
2023-02-23T00:44:25.419Z,9.18
2023-02-23T00:46:53.939Z,10.18
2023-02-23T00:49:23.416Z,10.32
2023-02-23T00:51:52.240Z,9.57
2023-02-23T00:54:21.580Z,10.20
2023-02-23T00:56:51.390Z,10.27
2023-02-23T00:59:20.191Z,9.65
2023-02-23T01:01:48.159Z,9.57
2023-02-23T01:04:16.733Z,10.45
2023-02-23T01:06:46.220Z,10.95
2023-02-23T01:09:27.185Z,9.88
2023-02-23T01:11:57.770Z,10.02
2023-02-23T01:14:26.244Z,10.05
2023-02-23T01:16:54.247Z,9.82
2023-02-23T01:19:22.500Z,9.85
2023-02-23T01:21:50.544Z,10.00
2023-02-23T01:24:18.981Z,10.55
2023-02-23T01:26:47.350Z,9.88
2023-02-23T01:29:18.744Z,10.13
2023-02-23T01:31:51.114Z,10.60
2023-02-23T01:34:21.697Z,10.90
2023-02-23T01:36:49.942Z,9.90
2023-02-23T01:39:20.678Z,9.90
2023-02-23T01:41:48.741Z,9.82
2023-02-23T01:44:50.422Z,10.98
2023-02-23T01:47:20.868Z,12.02
2023-02-23T01:49:50.987Z,11.13
2023-02-23T01:52:20.781Z,11.40
2023-02-23T01:54:52.910Z,10.45
2023-02-23T01:57:25.204Z,10.45
2023-02-23T01:59:54.762Z,10.73
2023-02-23T02:02:33.597Z,10.75
2023-02-23T02:05:05.159Z,10.90
2023-02-23T02:07:36.188Z,11.50
2023-02-23T02:10:33.700Z,11.02
2023-02-23T02:13:05.853Z,10.50
2023-02-23T02:15:39.182Z,10.93
2023-02-23T02:21:18.808Z,11.37
2023-02-23T02:24:08.196Z,11.15
2023-02-23T02:26:47.281Z,11.13
2023-02-23T02:29:44.832Z,11.25
2023-02-23T02:32:57.059Z,11.20
2023-02-23T02:35:50.577Z,10.30
2023-02-23T02:38:31.650Z,11.05
2023-02-23T02:41:05.522Z,11.82
2023-02-23T02:43:43.699Z,12.82
2023-02-23T02:46:17.450Z,11.82
2023-02-23T02:48:52.515Z,11.45
2023-02-23T02:51:25.196Z,11.23
2023-02-23T02:54:07.169Z,11.27
2023-02-23T02:56:40.384Z,13.88
2023-02-23T02:59:31.205Z,12.88
2023-02-23T03:02:17.553Z,11.30
2023-02-23T03:05:03.403Z,12.13
2023-02-23T03:07:57.103Z,11.75
2023-02-23T03:13:49.578Z,12.70
2023-02-23T03:16:44.088Z,11.63
2023-02-23T03:19:35.509Z,12.48
2023-02-23T03:22:32.293Z,12.45
2023-02-23T03:25:24.456Z,12.25
2023-02-23T03:28:15.478Z,10.65
2023-02-23T03:31:10.096Z,10.70
2023-02-23T03:34:03.437Z,11.93
2023-02-23T03:36:54.509Z,11.48
2023-02-23T03:39:46.520Z,12.68
2023-02-23T03:42:38.033Z,11.85
2023-02-23T03:45:30.494Z,13.02
2023-02-23T03:48:18.278Z,10.45
2023-02-23T03:51:09.463Z,12.95
2023-02-23T03:54:03.579Z,11.95
2023-02-23T03:56:52.409Z,10.65
2023-02-23T03:59:42.032Z,11.38
2023-02-23T04:02:31.272Z,11.73
2023-02-23T04:05:20.615Z,12.18
2023-02-23T04:08:10.916Z,11.73
2023-02-23T04:11:12.727Z,11.88
2023-02-23T04:13:41.342Z,10.85
2023-02-23T04:16:10.422Z,11.45
2023-02-23T04:18:40.647Z,12.35
2023-02-23T04:21:09.100Z,12.00
2023-02-23T04:23:40.617Z,12.13
2023-02-23T04:26:08.511Z,12.55
2023-02-23T04:28:36.517Z,12.45
2023-02-23T04:31:04.518Z,13.05
2023-02-23T04:33:32.533Z,12.27
2023-02-23T04:36:01.771Z,11.50
2023-02-23T04:38:29.608Z,12.63
2023-02-23T04:40:57.435Z,12.32
2023-02-23T04:43:25.273Z,12.88
2023-02-23T04:45:53.357Z,12.88
2023-02-23T04:48:21.245Z,12.52
2023-02-23T04:50:52.700Z,12.60
2023-02-23T04:53:21.899Z,13.38
2023-02-23T04:55:49.832Z,13.45
2023-02-23T04:58:17.784Z,12.93
2023-02-23T05:00:45.646Z,12.63
2023-02-23T05:03:13.824Z,12.63
2023-02-23T05:05:41.691Z,12.15
2023-02-23T05:08:09.598Z,12.45
2023-02-23T05:10:40.383Z,12.73
2023-02-23T05:13:08.493Z,12.63
2023-02-23T05:15:37.127Z,12.57
2023-02-23T05:18:05.033Z,13.52
2023-02-23T05:20:32.923Z,11.43
2023-02-23T05:23:00.863Z,12.13
2023-02-23T05:25:28.723Z,12.23
2023-02-23T05:27:57.951Z,12.60
2023-02-23T05:30:25.935Z,11.85
2023-02-23T05:32:53.786Z,11.95
2023-02-23T05:35:21.668Z,11.45
2023-02-23T05:37:49.565Z,12.75
2023-02-23T05:40:17.531Z,14.18
2023-02-23T05:42:45.401Z,13.07
2023-02-23T05:45:14.674Z,11.88
2023-02-23T05:47:42.604Z,14.70
2023-02-23T05:50:12.440Z,13.30
2023-02-23T05:52:41.981Z,12.25
2023-02-23T05:55:12.610Z,13.27
2023-02-23T05:57:41.170Z,13.07
2023-02-23T06:00:11.863Z,12.23
2023-02-23T06:02:41.759Z,12.73
2023-02-23T06:05:10.800Z,13.18
2023-02-23T06:07:38.840Z,12.95
2023-02-23T06:10:07.784Z,13.48
2023-02-23T06:12:36.432Z,13.50
2023-02-23T06:15:04.679Z,12.30
2023-02-23T06:17:32.534Z,12.45
2023-02-23T06:20:03.469Z,13.13
2023-02-23T06:22:31.400Z,11.73
2023-02-23T06:24:59.317Z,12.48
2023-02-23T06:27:27.256Z,12.65
2023-02-23T06:29:55.113Z,12.50
2023-02-23T06:32:23.066Z,13.90
2023-02-23T06:34:52.429Z,12.73
2023-02-23T06:37:21.654Z,13.50
2023-02-23T06:39:50.469Z,13.18
2023-02-23T06:42:18.487Z,12.18
2023-02-23T06:44:46.423Z,11.82
2023-02-23T06:47:14.337Z,12.88
2023-02-23T06:49:42.565Z,13.05
2023-02-23T06:52:13.525Z,12.98
2023-02-23T06:54:42.973Z,12.60
2023-02-23T06:57:11.186Z,11.98
2023-02-23T06:59:39.255Z,12.90
2023-02-23T07:02:07.451Z,13.65
2023-02-23T07:04:35.362Z,11.93
2023-02-23T07:07:03.641Z,12.85
2023-02-23T07:09:31.602Z,13.00
2023-02-23T07:12:00.967Z,11.55
2023-02-23T07:14:29.289Z,11.93
2023-02-23T07:16:57.121Z,13.60
2023-02-23T07:19:25.004Z,12.10
2023-02-23T07:21:53.569Z,12.20
2023-02-23T07:24:21.945Z,12.70
2023-02-23T07:26:50.188Z,12.82
2023-02-23T07:29:20.001Z,13.00
2023-02-23T07:31:50.055Z,12.98
2023-02-23T07:34:18.051Z,12.27
2023-02-23T07:36:45.924Z,12.60
2023-02-23T07:39:13.939Z,12.63
2023-02-23T07:41:41.801Z,12.95
2023-02-23T07:44:20.225Z,12.10
2023-02-23T07:46:48.181Z,12.63
2023-02-23T07:49:16.115Z,13.15
2023-02-23T07:51:44.002Z,11.70
2023-02-23T07:54:11.882Z,13.63
2023-02-23T07:56:40.552Z,12.40
2023-02-23T07:59:08.474Z,12.13
2023-02-23T08:01:37.729Z,13.35
2023-02-23T08:04:05.920Z,12.48
2023-02-23T08:06:33.808Z,12.30
2023-02-23T08:09:03.176Z,12.57
2023-02-23T08:11:31.123Z,12.38
2023-02-23T08:14:00.303Z,12.43
2023-02-23T08:16:28.713Z,12.40
2023-02-23T08:18:59.643Z,12.20
2023-02-23T08:21:29.276Z,12.85
2023-02-23T08:23:57.829Z,13.13
2023-02-23T08:26:26.057Z,11.60
2023-02-23T08:28:54.319Z,12.38
2023-02-23T08:31:27.530Z,12.70
2023-02-23T08:33:59.824Z,12.85
2023-02-23T08:36:27.777Z,12.20
2023-02-23T08:38:55.835Z,11.98
2023-02-23T08:41:24.053Z,12.48
2023-02-23T08:43:51.931Z,11.90
2023-02-23T08:46:20.581Z,13.88
2023-02-23T08:48:48.531Z,13.50
2023-02-23T08:51:18.235Z,12.65
2023-02-23T08:53:46.472Z,13.38
2023-02-23T08:56:15.321Z,13.20
2023-02-23T08:58:43.853Z,12.18
2023-02-23T09:01:18.476Z,13.18
2023-02-23T09:03:46.678Z,13.32
2023-02-23T09:06:20.052Z,13.40
2023-02-23T09:08:48.454Z,14.38
2023-02-23T09:11:16.489Z,12.57
2023-02-23T09:13:45.030Z,13.52
2023-02-23T09:16:13.044Z,12.35
2023-02-23T09:18:41.749Z,13.30
2023-02-23T09:21:18.925Z,13.30
2023-02-23T09:23:51.218Z,12.85
2023-02-23T09:26:19.980Z,12.25
2023-02-23T09:28:48.117Z,11.85
2023-02-23T09:31:18.423Z,12.55
2023-02-23T09:33:46.774Z,12.60
2023-02-23T09:36:17.278Z,12.93
2023-02-23T09:38:45.370Z,12.77
2023-02-23T09:41:46.974Z,13.43
2023-02-23T09:44:26.333Z,12.88
2023-02-23T09:47:04.204Z,11.95
2023-02-23T09:49:36.034Z,13.07
2023-02-23T09:52:06.006Z,12.65
2023-02-23T09:54:36.772Z,13.77
2023-02-23T09:57:13.452Z,12.02
2023-02-23T09:59:41.867Z,12.85
2023-02-23T10:02:21.738Z,13.52
2023-02-23T10:04:53.817Z,12.50
2023-02-23T10:10:07.444Z,12.98
2023-02-23T10:12:46.941Z,13.82
2023-02-23T10:15:26.331Z,13.40
2023-02-23T10:18:04.164Z,12.93
2023-02-23T10:20:38.441Z,12.70
2023-02-23T10:23:13.109Z,12.25
2023-02-23T10:25:47.746Z,13.27
2023-02-23T10:28:21.533Z,12.95
2023-02-23T10:30:51.198Z,11.88
2023-02-23T10:33:25.256Z,12.70
2023-02-23T10:36:12.619Z,13.05
2023-02-23T10:38:41.097Z,13.48
2023-02-23T10:41:12.140Z,12.65
2023-02-23T10:43:43.359Z,13.53
2023-02-23T10:46:20.842Z,13.02
2023-02-23T10:48:50.350Z,13.88
2023-02-23T10:51:22.893Z,13.60
2023-02-23T10:53:52.855Z,13.63
2023-02-23T10:56:22.406Z,13.75
2023-02-23T10:58:53.081Z,13.40
2023-02-23T11:01:36.230Z,14.07
2023-02-23T11:04:14.577Z,13.27
2023-02-23T11:06:44.569Z,15.25
2023-02-23T11:09:41.878Z,14.10
2023-02-23T11:12:22.056Z,13.85
2023-02-23T11:14:52.827Z,14.02
2023-02-23T11:17:31.996Z,13.23
2023-02-23T11:20:02.723Z,13.13
2023-02-23T11:22:37.208Z,14.15
2023-02-23T11:25:16.649Z,13.93
2023-02-23T11:27:51.363Z,12.90
2023-02-23T11:30:24.567Z,13.30
2023-02-23T11:32:54.013Z,14.93
2023-02-23T11:35:31.858Z,16.60
2023-02-23T11:37:59.811Z,14.75
2023-02-23T11:40:29.567Z,14.20
2023-02-23T11:43:01.073Z,14.93
2023-02-23T11:45:34.537Z,16.05
2023-02-23T11:48:04.608Z,15.35
2023-02-23T11:50:35.559Z,13.20
2023-02-23T11:53:06.769Z,15.02
2023-02-23T11:55:37.832Z,14.00
2023-02-23T11:58:11.736Z,13.50
2023-02-23T12:00:41.419Z,13.48
2023-02-23T12:03:22.931Z,14.38
2023-02-23T12:05:53.240Z,14.07
2023-02-23T12:08:31.339Z,14.82
2023-02-23T12:11:01.701Z,14.52
2023-02-23T12:13:34.905Z,14.85
2023-02-23T12:16:11.416Z,15.52
2023-02-23T12:18:47.824Z,13.95
2023-02-23T12:21:25.220Z,13.25
2023-02-23T12:24:04.355Z,13.45
2023-02-23T12:26:35.090Z,14.25
2023-02-23T12:29:21.428Z,14.15
2023-02-23T12:31:55.390Z,13.77
2023-02-23T12:34:28.055Z,14.48
2023-02-23T12:37:00.483Z,14.50
2023-02-23T12:39:33.868Z,13.60
2023-02-23T12:44:42.707Z,14.13
2023-02-23T12:47:22.596Z,13.88
2023-02-23T12:49:57.434Z,15.10
2023-02-23T12:52:30.517Z,14.38
2023-02-23T12:54:58.557Z,13.63
2023-02-23T12:57:38.690Z,13.27
2023-02-23T13:00:35.843Z,14.85
2023-02-23T13:03:28.364Z,13.75
2023-02-23T13:06:03.383Z,13.35
2023-02-23T13:08:42.854Z,15.25
2023-02-23T13:11:21.111Z,14.80
2023-02-23T13:13:55.625Z,14.05
2023-02-23T13:16:31.692Z,14.80
2023-02-23T13:19:16.418Z,15.30
2023-02-23T13:21:53.904Z,15.10
2023-02-23T13:24:25.269Z,14.07
2023-02-23T13:27:00.289Z,14.40
2023-02-23T13:29:35.215Z,14.88
2023-02-23T13:32:06.126Z,15.63
2023-02-23T13:34:40.790Z,14.68
2023-02-23T13:37:10.775Z,14.70
2023-02-23T13:39:56.722Z,15.63
2023-02-23T13:42:37.503Z,14.95
2023-02-23T13:45:35.393Z,15.45
2023-02-23T13:48:12.973Z,14.38
2023-02-23T13:50:49.169Z,14.93
2023-02-23T13:53:38.436Z,16.60
2023-02-23T13:56:08.598Z,15.40
2023-02-23T13:58:37.263Z,15.23
2023-02-23T14:01:19.005Z,14.48
2023-02-23T14:03:54.367Z,14.38
2023-02-23T14:06:26.084Z,15.98
2023-02-23T14:09:00.832Z,15.32
2023-02-23T14:11:31.024Z,16.27
2023-02-23T14:14:01.830Z,16.48
2023-02-23T14:16:29.977Z,16.20
2023-02-23T14:19:10.909Z,17.02
2023-02-23T14:21:46.913Z,17.77
2023-02-23T14:24:19.417Z,16.88
2023-02-23T14:27:12.777Z,16.90
2023-02-23T14:29:41.896Z,16.63
2023-02-23T14:32:31.279Z,17.80
2023-02-23T14:35:00.552Z,17.63
2023-02-23T14:37:33.132Z,16.08
2023-02-23T14:40:14.508Z,18.30
2023-02-23T14:42:47.080Z,18.05
2023-02-23T14:45:20.507Z,19.03
2023-02-23T14:47:52.162Z,19.05
2023-02-23T14:50:27.005Z,19.27
2023-02-23T14:52:57.378Z,19.00
2023-02-23T14:55:29.203Z,19.05
2023-02-23T14:57:58.360Z,19.98
2023-02-23T15:00:28.454Z,18.95
2023-02-23T15:03:00.109Z,20.20
2023-02-23T15:05:30.573Z,22.17
2023-02-23T15:08:07.088Z,20.98
2023-02-23T15:10:39.276Z,22.58
2023-02-23T15:13:11.870Z,21.25
2023-02-23T15:15:45.426Z,20.27
2023-02-23T15:18:22.686Z,20.70
2023-02-23T15:20:51.702Z,20.02
2023-02-23T15:23:21.996Z,21.20
2023-02-23T15:25:51.222Z,20.77
2023-02-23T15:28:25.273Z,20.30
2023-02-23T15:30:54.411Z,21.88
2023-02-23T15:33:28.410Z,20.63
2023-02-23T15:36:03.848Z,21.25
2023-02-23T15:38:43.399Z,20.25
2023-02-23T15:41:23.166Z,20.92
2023-02-23T15:43:51.265Z,21.85
2023-02-23T15:46:24.702Z,22.58
2023-02-23T15:48:54.830Z,21.25
2023-02-23T15:51:33.876Z,21.75
2023-02-23T15:54:07.877Z,22.85
2023-02-23T15:56:36.402Z,22.23
2023-02-23T15:59:12.958Z,23.30
2023-02-23T16:01:44.932Z,20.02
2023-02-23T16:04:19.280Z,22.77
2023-02-23T16:06:53.138Z,22.48
2023-02-23T16:09:30.071Z,22.70
2023-02-23T16:12:03.212Z,24.17
2023-02-23T16:14:36.242Z,24.95
2023-02-23T16:17:11.469Z,25.40
2023-02-23T16:19:41.714Z,25.33
2023-02-23T16:22:21.367Z,25.60
2023-02-23T16:24:58.936Z,25.08
2023-02-23T16:27:28.994Z,27.05
2023-02-23T16:30:00.206Z,26.55
2023-02-23T16:32:36.392Z,27.15
2023-02-23T16:35:15.342Z,28.13
2023-02-23T16:37:59.130Z,27.75
2023-02-23T16:40:28.907Z,28.77
2023-02-23T16:42:59.546Z,28.92
2023-02-23T16:45:29.659Z,29.90
2023-02-23T16:48:02.081Z,28.45
2023-02-23T16:50:30.650Z,30.05
2023-02-23T16:52:58.654Z,31.70
2023-02-23T16:55:29.517Z,30.52
2023-02-23T16:58:00.424Z,30.52
2023-02-23T17:00:30.468Z,31.40
2023-02-23T17:03:00.584Z,32.03
2023-02-23T17:05:30.145Z,31.38
2023-02-23T17:07:59.021Z,30.50
2023-02-23T17:10:32.264Z,30.88
2023-02-23T17:13:04.431Z,30.85
2023-02-23T17:15:34.876Z,31.75
2023-02-23T17:18:02.953Z,31.27
2023-02-23T17:20:32.663Z,31.90
2023-02-23T17:23:02.382Z,32.10
2023-02-23T17:25:31.970Z,32.40
2023-02-23T17:28:01.813Z,31.13
2023-02-23T17:30:30.533Z,33.17
2023-02-23T17:33:00.426Z,32.55
2023-02-23T17:35:33.649Z,32.30
2023-02-23T17:38:01.938Z,32.17
2023-02-23T17:40:34.641Z,33.17
2023-02-23T17:43:04.693Z,32.42
2023-02-23T17:45:32.994Z,32.85
2023-02-23T17:48:00.900Z,33.67
2023-02-23T17:50:29.219Z,32.08
2023-02-23T17:52:57.851Z,32.42
2023-02-23T17:55:26.160Z,34.30
2023-02-23T17:57:55.440Z,33.45
2023-02-23T18:00:25.067Z,33.97
2023-02-23T18:02:53.123Z,33.95
2023-02-23T18:05:21.667Z,34.35
2023-02-23T18:07:49.634Z,32.28
2023-02-23T18:10:17.792Z,33.40
2023-02-23T18:12:46.056Z,34.80
2023-02-23T18:15:15.400Z,32.80
2023-02-23T18:17:43.330Z,34.15
2023-02-23T18:20:15.018Z,33.92
2023-02-23T18:22:43.656Z,33.75
2023-02-23T18:25:21.416Z,33.80
2023-02-23T18:27:53.934Z,33.33
2023-02-23T18:30:24.687Z,35.93
2023-02-23T18:32:53.346Z,34.63
2023-02-23T18:35:21.881Z,34.72
2023-02-23T18:37:49.933Z,34.80
2023-02-23T18:40:24.839Z,33.53
2023-02-23T18:42:52.827Z,34.00
2023-02-23T18:45:20.694Z,32.55
2023-02-23T18:47:50.151Z,32.40
2023-02-23T18:50:19.605Z,33.10
2023-02-23T18:52:48.896Z,29.98
2023-02-23T18:55:16.910Z,32.50
2023-02-23T18:57:45.310Z,32.35
2023-02-23T19:00:15.769Z,31.60
2023-02-23T19:02:46.361Z,30.77
2023-02-23T19:05:20.160Z,30.40
2023-02-23T19:07:49.067Z,31.45
2023-02-23T19:10:17.371Z,30.00
2023-02-23T19:12:45.266Z,30.83
2023-02-23T19:15:13.633Z,29.67
2023-02-23T19:17:41.489Z,29.45
2023-02-23T19:20:13.667Z,29.48
2023-02-23T19:22:43.942Z,30.57
2023-02-23T19:25:14.279Z,31.40
2023-02-23T19:27:42.767Z,31.38
2023-02-23T19:30:11.911Z,31.95
2023-02-23T19:32:40.671Z,30.05
2023-02-23T19:35:14.679Z,30.15
2023-02-23T19:37:51.009Z,28.75
2023-02-23T19:40:22.866Z,30.27
2023-02-23T19:42:52.788Z,28.63
2023-02-23T19:45:21.854Z,29.38
2023-02-23T19:47:52.664Z,27.50
2023-02-23T19:50:20.707Z,28.95
2023-02-23T19:52:50.453Z,28.35
2023-02-23T19:55:20.258Z,26.92
2023-02-23T19:57:48.287Z,26.48
2023-02-23T20:00:16.888Z,24.98
2023-02-23T20:02:44.794Z,23.85
2023-02-23T20:05:14.438Z,21.80
2023-02-23T20:07:43.242Z,18.80
2023-02-23T20:10:16.439Z,16.65
2023-02-23T20:12:44.820Z,14.70
2023-02-23T20:15:14.698Z,14.05
2023-02-23T20:17:42.635Z,15.45
2023-02-23T20:20:12.188Z,16.55
2023-02-23T20:22:41.400Z,14.20
2023-02-23T20:25:16.005Z,17.92
2023-02-23T20:27:45.689Z,16.45
2023-02-23T20:30:14.545Z,16.48
2023-02-23T20:32:42.649Z,16.25
2023-02-23T20:35:13.102Z,16.95
2023-02-23T20:37:41.182Z,17.98
2023-02-23T20:40:16.510Z,19.02
2023-02-23T20:42:47.844Z,18.23
2023-02-23T20:45:17.953Z,18.02
2023-02-23T20:47:46.901Z,18.95
2023-02-23T20:50:15.944Z,17.95
2023-02-23T20:52:45.913Z,18.65
2023-02-23T20:55:18.919Z,18.42
2023-02-23T20:57:49.039Z,20.80
2023-02-23T21:00:22.603Z,19.73
2023-02-23T21:02:55.459Z,19.55
2023-02-23T21:05:25.283Z,20.98
2023-02-23T21:07:53.913Z,20.13
2023-02-23T21:10:21.925Z,22.80
2023-02-23T21:12:53.018Z,19.85
2023-02-23T21:15:20.919Z,20.00
2023-02-23T21:17:50.430Z,22.58
2023-02-23T21:20:20.676Z,20.98
2023-02-23T21:22:50.168Z,21.08
2023-02-23T21:25:19.422Z,21.63
2023-02-23T21:27:47.880Z,20.77
2023-02-23T21:30:19.435Z,20.65
2023-02-23T21:32:48.314Z,20.45
2023-02-23T21:35:16.740Z,21.13
2023-02-23T21:37:44.696Z,21.02
2023-02-23T21:40:17.365Z,21.27
2023-02-23T21:42:45.311Z,21.15
2023-02-23T21:45:14.124Z,18.40
2023-02-23T21:47:45.583Z,18.50
2023-02-23T21:50:15.629Z,20.48
2023-02-23T21:52:45.685Z,20.63
2023-02-23T21:55:21.289Z,21.35
2023-02-23T21:57:50.769Z,19.67
2023-02-23T22:00:19.158Z,18.77
2023-02-23T22:02:48.904Z,19.25
2023-02-23T22:05:18.250Z,19.25
2023-02-23T22:07:49.428Z,20.33
2023-02-23T22:10:18.019Z,20.27
2023-02-23T22:12:45.898Z,19.63
2023-02-23T22:15:15.814Z,19.35
2023-02-23T22:17:44.146Z,20.35
2023-02-23T22:20:14.547Z,19.77
2023-02-23T22:22:42.873Z,20.90
2023-02-23T22:25:11.440Z,20.35
2023-02-23T22:27:41.583Z,19.85
2023-02-23T22:30:12.217Z,19.20
2023-02-23T22:32:40.768Z,19.45
2023-02-23T22:35:09.414Z,21.15
2023-02-23T22:37:39.358Z,21.05
2023-02-23T22:40:13.371Z,19.98
2023-02-23T22:42:43.264Z,19.50
2023-02-23T22:45:12.229Z,20.55
2023-02-23T22:47:40.090Z,19.58
2023-02-23T22:50:12.029Z,19.83
2023-02-23T22:52:43.099Z,20.15
2023-02-23T22:55:13.120Z,19.65
2023-02-23T22:57:41.123Z,19.65
2023-02-23T23:00:12.495Z,20.27
2023-02-23T23:02:40.603Z,19.13
2023-02-23T23:05:09.520Z,17.40
2023-02-23T23:07:37.399Z,19.27
2023-02-23T23:10:09.320Z,18.10
2023-02-23T23:12:37.995Z,17.88
2023-02-23T23:15:14.610Z,16.80
2023-02-23T23:17:48.084Z,17.92
2023-02-23T23:20:17.658Z,17.33
2023-02-23T23:22:45.609Z,19.15
2023-02-23T23:25:15.709Z,17.50
2023-02-23T23:27:45.811Z,17.73
2023-02-23T23:30:15.423Z,16.48
2023-02-23T23:32:43.528Z,16.42
2023-02-23T23:35:13.588Z,16.10
2023-02-23T23:37:41.627Z,16.58
2023-02-23T23:40:14.681Z,16.75
2023-02-23T23:42:46.470Z,17.00
2023-02-23T23:45:16.233Z,15.23
2023-02-23T23:47:45.034Z,16.10
2023-02-23T23:50:14.137Z,16.02
2023-02-23T23:52:44.471Z,17.92
2023-02-23T23:55:14.590Z,15.68
2023-02-23T23:57:44.307Z,16.10
